Time;durP1;ratioP1;P1;durP2;ratioP2;P2;SDS_P1;SDS_P2;PMS_P1;PMS_P2;Temp;Humidity;BMP_temperature;BMP_pressure;BME280_temperature;BME280_humidity;BME280_pressure;Samples;Min_cycle;Max_cycle;Signal;HPM_P1;HPM_P2
2022/11/25 00:00:24;;;;;;;3.20;1.42;;;;;;;5.81;100.00;100888.50;5085060;28;20035;-75
2022/11/25 00:02:50;;;;;;;5.03;1.80;;;;;;;5.83;100.00;100884.03;5090518;28;20093;-75
2022/11/25 00:05:15;;;;;;;3.70;1.25;;;;;;;5.84;100.00;100871.94;5080776;28;20043;-75
2022/11/25 00:07:41;;;;;;;2.38;1.17;;;;;;;5.83;100.00;100873.69;5088227;28;20040;-75
2022/11/25 00:10:07;;;;;;;4.68;1.85;;;;;;;5.85;100.00;100873.59;5088000;28;20106;-75
2022/11/25 00:12:33;;;;;;;2.80;1.27;;;;;;;5.85;100.00;100860.66;5082282;28;20024;-76
2022/11/25 00:14:58;;;;;;;4.13;1.45;;;;;;;5.87;100.00;100879.50;5089893;28;20023;-75
2022/11/25 00:17:24;;;;;;;4.63;1.25;;;;;;;5.88;100.00;100881.97;5086341;28;20031;-75
2022/11/25 00:19:49;;;;;;;4.18;1.55;;;;;;;5.87;100.00;100871.72;5091375;28;20024;-75
2022/11/25 00:22:15;;;;;;;4.97;1.33;;;;;;;5.85;100.00;100877.00;5084678;28;20093;-75
2022/11/25 00:24:41;;;;;;;3.85;1.60;;;;;;;5.84;100.00;100885.69;5087326;28;20510;-75
2022/11/25 00:27:07;;;;;;;2.53;1.10;;;;;;;5.82;100.00;100877.22;5087545;28;20040;-76
2022/11/25 00:29:32;;;;;;;7.80;1.10;;;;;;;5.80;100.00;100886.00;5085174;28;20030;-75
2022/11/25 00:31:58;;;;;;;5.40;1.70;;;;;;;5.79;100.00;100889.53;5089927;28;20024;-74
2022/11/25 00:34:23;;;;;;;3.45;1.20;;;;;;;5.80;100.00;100893.75;5089304;28;20539;-75
2022/11/25 00:36:49;;;;;;;6.72;1.20;;;;;;;5.77;100.00;100891.38;5089268;28;20118;-74
2022/11/25 00:39:17;;;;;;;4.95;1.80;;;;;;;5.74;100.00;100883.84;5089335;28;20115;-76
2022/11/25 00:44:38;;;;;;;4.70;1.65;;;;;;;5.79;100.00;100894.69;5085365;28;20182;-75
2022/11/25 00:47:12;;;;;;;5.72;1.50;;;;;;;5.84;100.00;100897.81;5093815;28;20028;-75
2022/11/25 00:49:40;;;;;;;4.18;1.33;;;;;;;5.87;100.00;100895.00;5089078;28;20056;-74
2022/11/25 00:52:07;;;;;;;3.03;1.35;;;;;;;5.85;100.00;100902.03;5091337;28;20032;-76
2022/11/25 00:54:33;;;;;;;4.53;1.52;;;;;;;5.84;100.00;100916.72;5088855;28;20036;-74
2022/11/25 00:56:58;;;;;;;3.83;1.30;;;;;;;5.80;100.00;100911.88;5084607;28;20036;-75
2022/11/25 00:59:24;;;;;;;8.60;2.38;;;;;;;5.75;100.00;100917.34;5087491;28;20032;-75
2022/11/25 01:01:50;;;;;;;3.67;1.50;;;;;;;5.71;100.00;100920.22;5082960;28;20024;-74
2022/11/25 01:04:15;;;;;;;7.60;1.63;;;;;;;5.66;100.00;100916.22;5088616;28;20360;-74
2022/11/25 01:06:41;;;;;;;4.78;1.80;;;;;;;5.72;100.00;100921.88;5088804;28;20050;-75
2022/11/25 01:09:08;;;;;;;2.33;0.90;;;;;;;5.77;100.00;100922.41;5095085;28;20110;-76
2022/11/25 01:11:34;;;;;;;4.82;1.38;;;;;;;5.86;100.00;100926.97;5086936;28;20499;-75
2022/11/25 01:13:59;;;;;;;6.95;1.55;;;;;;;5.91;100.00;100927.53;5083595;28;20082;-76
2022/11/25 01:16:25;;;;;;;5.03;1.83;;;;;;;5.89;100.00;100924.22;5085273;28;20063;-76
2022/11/25 01:18:51;;;;;;;4.88;1.17;;;;;;;5.95;100.00;100931.56;5092412;28;20466;-74
2022/11/25 01:21:23;;;;;;;3.15;1.33;;;;;;;6.05;100.00;100927.44;5092849;28;20062;-74
2022/11/25 01:23:49;;;;;;;4.07;1.23;;;;;;;6.13;100.00;100927.75;5086392;28;20054;-75
2022/11/25 01:26:20;;;;;;;2.65;0.60;;;;;;;6.15;100.00;100928.44;5084739;28;20071;-75
2022/11/25 01:28:46;;;;;;;2.60;1.10;;;;;;;6.13;100.00;100927.75;5094395;28;20036;-75
2022/11/25 01:31:16;;;;;;;2.00;0.80;;;;;;;6.14;100.00;100934.56;5089643;28;20440;-74
2022/11/25 01:33:42;;;;;;;3.67;0.90;;;;;;;6.13;100.00;100927.75;5088136;28;20028;-76
2022/11/25 01:36:10;;;;;;;3.28;1.00;;;;;;;6.12;100.00;100936.44;5094440;28;20044;-75
2022/11/25 01:38:36;;;;;;;4.20;1.02;;;;;;;6.10;100.00;100942.63;5093510;28;20474;-74
2022/11/25 01:41:03;;;;;;;1.85;0.90;;;;;;;6.07;100.00;100935.91;5089289;28;20050;-75
2022/11/25 01:43:29;;;;;;;2.58;0.90;;;;;;;5.99;100.00;100935.59;5084782;28;20032;-74
2022/11/25 01:46:05;;;;;;;2.90;1.15;;;;;;;5.90;100.00;100936.22;5085609;28;20359;-74
2022/11/25 01:48:57;;;;;;;4.43;1.00;;;;;;;5.86;100.00;100939.91;5089640;28;20059;-74
2022/11/25 01:51:31;;;;;;;3.90;1.00;;;;;;;5.86;100.00;100934.72;5085937;28;20024;-75
2022/11/25 01:54:00;;;;;;;2.80;1.02;;;;;;;5.89;100.00;100935.38;5088119;28;20036;-75
2022/11/25 01:56:29;;;;;;;4.70;1.55;;;;;;;5.85;100.00;100935.66;5087165;28;20367;-75
2022/11/25 01:58:55;;;;;;;2.47;1.15;;;;;;;5.81;100.00;100934.22;5088607;28;20073;-75
2022/11/25 02:01:20;;;;;;;8.32;0.98;;;;;;;5.80;100.00;100933.38;5090229;28;20024;-75
2022/11/25 02:03:50;;;;;;;2.63;1.10;;;;;;;5.80;100.00;100923.03;5100860;28;20475;-75
2022/11/25 02:06:24;;;;;;;2.92;1.10;;;;;;;5.78;100.00;100924.91;5088338;28;20040;-74
2022/11/25 02:09:02;;;;;;;3.42;1.10;;;;;;;5.76;100.00;100931.09;5092135;28;20422;-75
2022/11/25 02:11:31;;;;;;;2.78;0.82;;;;;;;5.73;100.00;100932.13;5088973;28;20040;-74
2022/11/25 02:13:58;;;;;;;2.10;1.05;;;;;;;5.72;100.00;100938.22;5094709;28;20024;-75
2022/11/25 02:16:24;;;;;;;4.05;1.27;;;;;;;5.72;100.00;100934.81;5087280;28;20878;-75
2022/11/25 02:18:50;;;;;;;4.78;1.58;;;;;;;5.64;100.00;100928.41;5092463;28;20118;-75
2022/11/25 02:21:29;;;;;;;4.07;1.25;;;;;;;5.60;100.00;100939.91;5090792;28;20028;-74
2022/11/25 02:24:10;;;;;;;2.67;0.80;;;;;;;5.66;100.00;100939.50;5096353;28;20097;-75
2022/11/25 02:26:37;;;;;;;2.92;1.00;;;;;;;5.67;100.00;100935.16;5088054;28;20028;-74
2022/11/25 02:29:02;;;;;;;2.53;0.90;;;;;;;5.66;100.00;100933.50;5090277;28;20486;-75
2022/11/25 02:31:28;;;;;;;2.42;1.00;;;;;;;5.66;100.00;100934.31;5085716;28;20165;-74
2022/11/25 02:33:53;;;;;;;3.35;1.00;;;;;;;5.71;100.00;100939.16;5100933;28;20019;-74
2022/11/25 02:36:21;;;;;;;2.28;0.75;;;;;;;5.71;100.00;100940.91;5092257;28;20127;-75
2022/11/25 02:39:00;;;;;;;2.42;0.68;;;;;;;5.74;100.00;100936.38;5094420;28;21004;-75
2022/11/25 02:41:36;;;;;;;2.33;0.93;;;;;;;5.71;100.00;100940.91;5089964;28;20394;-75
2022/11/25 02:44:03;;;;;;;1.30;0.70;;;;;;;5.71;100.00;100931.41;5099327;28;20024;-75
2022/11/25 02:46:29;;;;;;;3.28;1.27;;;;;;;5.70;100.00;100928.91;5086356;28;20028;-75
2022/11/25 02:48:57;;;;;;;2.67;0.80;;;;;;;5.68;100.00;100937.59;5095944;28;20085;-75
2022/11/25 02:51:25;;;;;;;3.63;0.70;;;;;;;5.64;100.00;100935.34;5093654;28;20455;-74
2022/11/25 02:53:51;;;;;;;2.53;0.70;;;;;;;5.66;100.00;100929.16;5091659;28;20363;-75
2022/11/25 02:56:18;;;;;;;1.63;0.50;;;;;;;5.67;100.00;100941.13;5086735;28;20047;-75
2022/11/25 02:58:44;;;;;;;2.30;0.80;;;;;;;5.67;100.00;100935.94;5092438;28;20420;-74
2022/11/25 03:01:09;;;;;;;2.17;0.90;;;;;;;5.70;100.00;100932.34;5093911;28;20040;-75
2022/11/25 03:03:36;;;;;;;2.00;0.88;;;;;;;5.64;100.00;100938.75;5090778;28;20107;-75
2022/11/25 03:06:02;;;;;;;2.55;0.80;;;;;;;5.65;100.00;100943.00;5091417;28;20467;-75
2022/11/25 03:08:27;;;;;;;2.85;0.90;;;;;;;5.63;100.00;100936.28;5087527;28;20036;-74
2022/11/25 03:10:53;;;;;;;2.88;0.82;;;;;;;5.63;100.00;100934.53;5094821;28;20027;-76
2022/11/25 03:13:19;;;;;;;2.53;0.65;;;;;;;5.66;100.00;100939.50;5092253;28;20479;-75
2022/11/25 03:15:44;;;;;;;5.72;0.65;;;;;;;5.72;100.00;100945.16;5091398;28;20378;-74
2022/11/25 03:18:10;;;;;;;1.50;0.52;;;;;;;5.74;100.00;100944.13;5088470;28;20035;-75
2022/11/25 03:20:36;;;;;;;1.00;0.40;;;;;;;5.72;100.00;100947.75;5091045;28;20032;-74
2022/11/25 03:23:02;;;;;;;1.73;0.50;;;;;;;5.62;100.00;100938.03;5089228;28;20074;-75
2022/11/25 03:25:27;;;;;;;5.28;0.65;;;;;;;5.55;100.00;100941.13;5087847;28;20131;-74
2022/11/25 03:27:53;;;;;;;2.88;0.60;;;;;;;5.55;100.00;100941.13;5090641;28;20107;-75
2022/11/25 03:30:22;;;;;;;7.15;0.98;;;;;;;5.55;100.00;100936.78;5090531;28;20059;-75
2022/11/25 03:32:48;;;;;;;2.03;0.80;;;;;;;5.53;100.00;100943.81;5086627;28;20040;-74
2022/11/25 03:35:15;;;;;;;2.15;0.60;;;;;;;5.54;100.00;100937.72;5088511;28;20028;-74
2022/11/25 03:37:41;;;;;;;2.00;0.50;;;;;;;5.57;100.00;100942.69;5091098;28;20966;-75
2022/11/25 03:40:08;;;;;;;3.63;0.50;;;;;;;5.63;100.00;100933.69;5087706;28;20043;-75
2022/11/25 03:42:33;;;;;;;2.55;0.35;;;;;;;5.70;100.00;100936.69;5088741;28;20028;-75
2022/11/25 03:44:59;;;;;;;3.72;0.88;;;;;;;5.72;100.00;100940.81;5096733;28;20110;-75
2022/11/25 03:47:24;;;;;;;1.80;0.60;;;;;;;5.75;100.00;100952.72;5088215;28;20039;-75
2022/11/25 03:49:50;;;;;;;2.28;0.60;;;;;;;5.77;100.00;100961.19;5097202;28;20027;-75
2022/11/25 03:52:15;;;;;;;3.33;1.40;;;;;;;5.72;100.00;100958.91;5089874;28;20030;-75
2022/11/25 03:54:41;;;;;;;2.00;0.82;;;;;;;5.66;100.00;100964.50;5088756;28;20577;-75
2022/11/25 03:57:06;;;;;;;1.52;0.77;;;;;;;5.66;100.00;100962.75;5090852;28;21600;-75
2022/11/25 03:59:32;;;;;;;2.92;0.60;;;;;;;5.62;100.00;100960.47;5087577;28;20064;-75
2022/11/25 04:01:57;;;;;;;1.50;0.65;;;;;;;5.54;100.00;100968.72;5091009;28;20036;-74
2022/11/25 04:04:23;;;;;;;2.13;0.65;;;;;;;5.43;100.00;100963.41;5085649;28;20024;-74
2022/11/25 04:06:49;;;;;;;4.28;0.75;;;;;;;5.40;100.00;100963.63;5090493;28;20032;-73
2022/11/25 04:09:14;;;;;;;5.53;0.88;;;;;;;5.40;100.00;100961.03;5087220;28;20054;-74
2022/11/25 04:14:23;;;;;;;3.42;0.50;;;;;;;5.44;100.00;100964.25;5087384;28;20039;-74
2022/11/25 04:16:49;;;;;;;2.25;0.85;;;;;;;5.46;100.00;100962.41;5089948;28;20024;-75
2022/11/25 04:19:14;;;;;;;3.38;0.50;;;;;;;5.46;100.00;100968.38;5087995;28;20043;-74
2022/11/25 04:21:40;;;;;;;1.15;0.50;;;;;;;5.49;100.00;100963.03;5089146;28;20081;-75
2022/11/25 04:24:06;;;;;;;5.75;0.60;;;;;;;5.54;100.00;100963.56;5091501;28;20043;-75
2022/11/25 04:26:31;;;;;;;3.03;0.52;;;;;;;5.58;100.00;100962.44;5088157;28;20148;-75
2022/11/25 04:28:57;;;;;;;1.83;0.50;;;;;;;5.66;100.00;100961.94;5093408;28;20039;-75
2022/11/25 04:31:22;;;;;;;1.65;0.40;;;;;;;5.72;100.00;100963.25;5091283;28;20568;-75
2022/11/25 04:33:48;;;;;;;2.28;0.50;;;;;;;5.76;100.00;100969.88;5081994;28;20035;-75
2022/11/25 04:36:13;;;;;;;2.35;0.40;;;;;;;5.76;100.00;100973.28;5085958;28;20463;-75
2022/11/25 04:38:39;;;;;;;2.25;0.30;;;;;;;5.80;100.00;100985.09;5089414;28;20471;-75
2022/11/25 04:41:05;;;;;;;2.22;0.40;;;;;;;5.78;100.00;100993.88;5086585;28;20054;-75
2022/11/25 04:43:30;;;;;;;4.00;0.50;;;;;;;5.77;100.00;100992.22;5092041;28;20031;-76
2022/11/25 04:45:56;;;;;;;2.90;0.40;;;;;;;5.74;100.00;100987.25;5091408;28;20106;-75
2022/11/25 04:48:21;;;;;;;2.85;0.40;;;;;;;5.64;100.00;100982.72;5090122;28;20379;-74
2022/11/25 04:50:47;;;;;;;2.45;0.63;;;;;;;5.58;100.00;100983.09;5087469;28;20024;-75
2022/11/25 04:53:12;;;;;;;1.67;0.60;;;;;;;5.55;100.00;100988.47;5085674;28;20038;-76
2022/11/25 04:55:38;;;;;;;1.83;0.68;;;;;;;5.56;100.00;100989.31;5088923;28;20040;-75
2022/11/25 04:58:04;;;;;;;2.88;0.75;;;;;;;5.59;100.00;100989.09;5088746;28;20024;-74
2022/11/25 05:00:29;;;;;;;1.55;0.50;;;;;;;5.60;100.00;100991.59;5083872;28;20020;-75
2022/11/25 05:02:54;;;;;;;2.42;0.47;;;;;;;5.60;100.00;100999.34;5088385;28;20028;-75
2022/11/25 05:05:20;;;;;;;1.58;0.57;;;;;;;5.58;100.00;100990.88;5089748;28;20040;-75
2022/11/25 05:07:46;;;;;;;5.05;1.00;;;;;;;5.54;100.00;100989.41;5087580;28;20032;-75
2022/11/25 05:10:12;;;;;;;1.08;0.30;;;;;;;5.58;100.00;100979.69;5089050;28;20036;-75
2022/11/25 05:12:38;;;;;;;2.03;0.50;;;;;;;5.57;100.00;100981.44;5088674;28;20028;-74
2022/11/25 05:15:05;;;;;;;2.95;0.40;;;;;;;5.52;100.00;100999.00;5090398;28;20383;-75
2022/11/25 05:17:31;;;;;;;3.63;0.73;;;;;;;5.51;100.00;100992.19;5087758;28;20453;-75
2022/11/25 05:19:57;;;;;;;1.42;0.50;;;;;;;5.54;100.00;101002.31;5093055;28;20111;-75
2022/11/25 05:22:26;;;;;;;1.95;0.68;;;;;;;5.55;100.00;100998.81;5088766;28;20028;-75
2022/11/25 05:24:52;;;;;;;3.40;0.50;;;;;;;5.60;100.00;101012.28;5087079;28;20052;-75
2022/11/25 05:27:19;;;;;;;1.25;0.50;;;;;;;5.60;100.00;101012.28;5087632;28;20039;-75
2022/11/25 05:29:45;;;;;;;3.35;0.43;;;;;;;5.58;100.00;101014.13;5086516;28;20492;-74
2022/11/25 05:32:10;;;;;;;1.42;0.40;;;;;;;5.54;100.00;101011.84;5094813;28;20036;-74
2022/11/25 05:34:36;;;;;;;5.47;0.50;;;;;;;5.46;100.00;101017.50;5090105;28;20032;-74
2022/11/25 05:37:02;;;;;;;2.22;0.60;;;;;;;5.46;100.00;101016.66;5092163;28;20066;-74
2022/11/25 05:39:27;;;;;;;1.75;0.60;;;;;;;5.42;100.00;101023.78;5092262;28;20039;-74
2022/11/25 05:41:53;;;;;;;1.27;0.50;;;;;;;5.45;100.00;101022.75;5097723;28;20028;-74
2022/11/25 05:44:19;;;;;;;3.97;0.68;;;;;;;5.45;100.00;101018.41;5090550;28;20126;-75
2022/11/25 05:46:47;;;;;;;1.58;0.63;;;;;;;5.49;100.00;101021.63;5098235;28;20039;-75
2022/11/25 05:49:14;;;;;;;2.35;0.50;;;;;;;5.49;100.00;101030.22;5091909;28;20479;-75
2022/11/25 05:51:39;;;;;;;1.67;0.60;;;;;;;5.55;100.00;101035.00;5092933;28;20032;-74
2022/11/25 05:54:05;;;;;;;4.75;0.65;;;;;;;5.54;100.00;101033.34;5090062;28;20038;-75
2022/11/25 05:56:30;;;;;;;1.00;0.50;;;;;;;5.50;100.00;101034.47;5094608;28;20885;-75
2022/11/25 05:58:58;;;;;;;2.53;0.55;;;;;;;5.47;100.00;101033.84;5088523;28;20032;-74
2022/11/25 06:01:23;;;;;;;1.65;0.40;;;;;;;5.45;100.00;101028.75;5082563;28;20037;-75
2022/11/25 06:03:49;;;;;;;1.63;0.50;;;;;;;5.40;100.00;101035.97;5088982;28;20024;-74
2022/11/25 06:06:14;;;;;;;3.95;0.65;;;;;;;5.37;100.00;101028.41;5088366;28;20036;-75
2022/11/25 06:08:40;;;;;;;3.25;0.90;;;;;;;5.38;100.00;101032.66;5090896;28;20078;-74
2022/11/25 06:11:12;;;;;;;3.45;0.90;;;;;;;5.33;100.00;101035.53;5091276;28;20024;-75
2022/11/25 06:13:38;;;;;;;2.88;0.98;;;;;;;5.33;100.00;101040.69;5094050;28;20028;-76
2022/11/25 06:16:13;;;;;;;1.25;0.50;;;;;;;5.29;100.00;101051.31;5089140;28;20024;-74
2022/11/25 06:18:38;;;;;;;1.95;0.70;;;;;;;5.28;100.00;101054.81;5092592;28;20468;-74
2022/11/25 06:21:05;;;;;;;3.40;1.08;;;;;;;5.32;100.00;101051.97;5087697;28;20044;-74
2022/11/25 06:23:31;;;;;;;2.30;0.90;;;;;;;5.34;100.00;101042.34;5090197;28;20043;-75
2022/11/25 06:26:22;;;;;;;2.92;0.90;;;;;;;5.31;100.00;101049.47;5091429;28;20032;-75
2022/11/25 06:28:52;;;;;;;4.45;0.50;;;;;;;5.29;100.00;101053.91;5091663;28;20079;-74
2022/11/25 06:31:20;;;;;;;2.13;0.50;;;;;;;5.28;100.00;101052.25;5090670;28;20043;-75
2022/11/25 06:33:47;;;;;;;2.17;0.73;;;;;;;5.30;100.00;101055.56;5092461;28;20665;-75
2022/11/25 06:36:15;;;;;;;2.25;0.60;;;;;;;5.32;100.00;101053.72;5088032;28;20020;-74
2022/11/25 06:38:49;;;;;;;2.50;0.80;;;;;;;5.36;100.00;101057.75;5091479;28;20501;-74
2022/11/25 06:41:16;;;;;;;2.63;0.73;;;;;;;5.36;100.00;101062.94;5083856;28;20127;-74
2022/11/25 06:43:44;;;;;;;2.30;0.73;;;;;;;5.38;100.00;101053.31;5084214;28;20089;-73
2022/11/25 06:46:13;;;;;;;3.95;1.13;;;;;;;5.44;100.00;101054.69;5089023;28;20039;-74
2022/11/25 06:48:38;;;;;;;2.45;0.93;;;;;;;5.43;100.00;101068.53;5080459;28;20652;-74
2022/11/25 06:51:13;;;;;;;3.75;0.90;;;;;;;5.46;100.00;101071.75;5081760;28;20115;-74
2022/11/25 06:53:39;;;;;;;3.28;1.25;;;;;;;5.53;100.00;101078.22;5081440;28;20040;-74
2022/11/25 06:56:19;;;;;;;3.67;1.10;;;;;;;5.56;100.00;101077.19;5081516;28;20028;-72
2022/11/25 06:58:46;;;;;;;4.10;0.82;;;;;;;5.61;100.00;101078.56;5097485;27;20051;-74
2022/11/25 07:01:13;;;;;;;2.20;0.50;;;;;;;5.70;100.00;101081.44;5090307;28;20024;-74
2022/11/25 07:03:39;;;;;;;2.15;0.70;;;;;;;5.76;100.00;101086.25;5091630;28;20024;-74
2022/11/25 07:06:05;;;;;;;2.35;0.50;;;;;;;5.79;100.00;101086.88;5095934;28;20031;-74
2022/11/25 07:08:30;;;;;;;0.98;0.40;;;;;;;5.81;100.00;101086.78;5086483;28;20035;-73
2022/11/25 07:11:05;;;;;;;1.98;0.60;;;;;;;5.81;100.00;101086.78;5096650;28;20062;-74
2022/11/25 07:13:32;;;;;;;1.77;0.65;;;;;;;5.83;100.00;101088.34;5089818;28;20668;-73
2022/11/25 07:16:05;;;;;;;1.30;0.70;;;;;;;5.87;100.00;101081.22;5088245;28;20023;-73
2022/11/25 07:18:32;;;;;;;2.97;1.20;;;;;;;5.88;100.00;101091.47;5092805;28;20047;-74
2022/11/25 07:21:22;;;;;;;2.33;0.80;;;;;;;5.88;100.00;101085.44;5091042;28;20028;-74
2022/11/25 07:23:48;;;;;;;2.15;0.63;;;;;;;5.91;100.00;101090.47;5082433;28;20044;-74
2022/11/25 07:26:23;;;;;;;2.40;0.60;;;;;;;5.92;100.00;101084.38;5085309;28;20032;-73
2022/11/25 07:28:50;;;;;;;2.28;0.88;;;;;;;5.91;100.00;101088.69;5083792;28;20470;-74
2022/11/25 07:31:26;;;;;;;1.77;0.70;;;;;;;5.94;100.00;101077.34;5093037;28;20035;-74
2022/11/25 07:33:53;;;;;;;1.30;0.43;;;;;;;5.91;100.00;101078.34;5087582;28;20181;-73
2022/11/25 07:36:19;;;;;;;2.80;0.68;;;;;;;5.88;100.00;101072.53;5080555;28;20186;-74
2022/11/25 07:38:44;;;;;;;6.47;0.95;;;;;;;5.85;100.00;101077.88;5081775;28;20459;-73
2022/11/25 07:41:12;;;;;;;4.10;0.98;;;;;;;5.84;100.00;101077.06;5077874;28;20504;-73
2022/11/25 07:43:38;;;;;;;1.17;0.60;;;;;;;5.86;100.00;101074.38;5079126;28;20042;-74
2022/11/25 07:46:17;;;;;;;5.28;0.60;;;;;;;5.85;100.00;101070.13;5087821;28;20032;-74
2022/11/25 07:48:44;;;;;;;1.70;0.50;;;;;;;5.91;100.00;101064.59;5088785;28;20055;-71
2022/11/25 07:51:21;;;;;;;2.85;0.60;;;;;;;5.97;100.00;101069.38;5090746;28;20024;-73
2022/11/25 07:53:47;;;;;;;2.25;0.73;;;;;;;6.07;100.00;101075.59;5093092;28;20031;-74
2022/11/25 07:56:14;;;;;;;1.88;0.80;;;;;;;6.11;100.00;101082.25;5091928;28;20051;-74
2022/11/25 07:58:40;;;;;;;1.63;0.57;;;;;;;6.13;100.00;101088.16;5090010;28;20698;-74
2022/11/25 08:01:07;;;;;;;4.28;0.60;;;;;;;6.16;100.00;101093.09;5079288;28;20040;-74
2022/11/25 08:03:35;;;;;;;1.40;0.60;;;;;;;6.19;100.00;101092.06;5080247;28;20438;-74
2022/11/25 08:06:05;;;;;;;2.83;0.90;;;;;;;6.19;100.00;101098.06;5081103;28;20071;-73
2022/11/25 08:08:32;;;;;;;2.58;1.25;;;;;;;6.19;100.00;101098.06;5079844;28;20035;-74
2022/11/25 08:10:57;;;;;;;3.00;0.90;;;;;;;6.24;100.00;101095.19;5081278;28;20024;-73
2022/11/25 08:13:23;;;;;;;2.00;0.82;;;;;;;6.26;100.00;101099.31;5079666;28;20172;-74
2022/11/25 08:15:48;;;;;;;1.60;0.60;;;;;;;6.27;100.00;101087.22;5085565;28;20069;-73
2022/11/25 08:18:14;;;;;;;1.38;0.40;;;;;;;6.28;100.00;101088.88;5087669;28;20038;-74
2022/11/25 08:20:39;;;;;;;3.17;1.17;;;;;;;6.33;100.00;101087.63;5089941;28;20028;-69
2022/11/25 08:23:05;;;;;;;1.95;0.60;;;;;;;6.47;100.00;101080.72;5086502;28;20406;-70
2022/11/25 08:25:30;;;;;;;3.85;0.77;;;;;;;6.58;100.00;101086.84;5079672;28;20035;-71
2022/11/25 08:27:58;;;;;;;1.13;0.60;;;;;;;6.66;100.00;101094.06;5082719;28;20044;-71
2022/11/25 08:30:24;;;;;;;2.00;0.52;;;;;;;6.71;100.00;101101.50;5085565;28;20028;-71
2022/11/25 08:32:51;;;;;;;2.55;0.80;;;;;;;6.79;100.00;101096.66;5088784;28;20093;-70
2022/11/25 08:35:16;;;;;;;6.68;0.50;;;;;;;6.83;100.00;101092.91;5083949;28;20036;-71
2022/11/25 08:37:42;;;;;;;1.38;0.50;;;;;;;6.89;100.00;101098.50;5089022;28;20027;-71
2022/11/25 08:40:09;;;;;;;2.35;0.60;;;;;;;6.96;100.00;101097.16;5090312;28;20032;-71
2022/11/25 08:42:35;;;;;;;3.28;0.77;;;;;;;6.93;100.00;101093.94;5086770;28;20028;-70
2022/11/25 08:45:01;;;;;;;2.22;0.50;;;;;;;6.88;100.00;101091.66;5087653;28;20034;-70
2022/11/25 08:47:26;;;;;;;1.95;0.40;;;;;;;6.86;100.00;101096.13;5093499;28;20546;-70
2022/11/25 08:49:53;;;;;;;1.42;0.63;;;;;;;6.86;100.00;101097.88;5092789;28;20031;-71
2022/11/25 08:52:20;;;;;;;1.73;0.55;;;;;;;6.94;100.00;101086.06;5080091;28;20039;-70
2022/11/25 08:54:46;;;;;;;2.97;0.68;;;;;;;7.07;100.00;101091.22;5082377;28;20058;-71
2022/11/25 08:57:11;;;;;;;2.10;0.50;;;;;;;7.09;100.00;101093.72;5080576;28;20475;-71
2022/11/25 08:59:37;;;;;;;3.22;0.50;;;;;;;7.11;100.00;101097.00;5087363;28;20066;-72
2022/11/25 09:02:04;;;;;;;1.35;0.50;;;;;;;7.14;100.00;101091.59;5087313;28;20126;-73
2022/11/25 09:04:30;;;;;;;2.03;0.55;;;;;;;7.21;100.00;101098.03;5085783;28;20039;-73
2022/11/25 09:06:55;;;;;;;2.38;0.60;;;;;;;7.32;100.00;101093.75;5089489;28;20032;-73
2022/11/25 09:09:21;;;;;;;3.10;0.50;;;;;;;7.41;100.00;101094.88;5087033;28;20035;-72
2022/11/25 09:11:46;;;;;;;3.83;1.30;;;;;;;7.46;100.00;101089.34;5091290;28;20062;-72
2022/11/25 09:14:12;;;;;;;4.50;0.85;;;;;;;7.49;100.00;101087.38;5088660;28;20524;-72
2022/11/25 09:16:38;;;;;;;1.95;0.70;;;;;;;7.65;100.00;101081.88;5088250;28;20407;-72
2022/11/25 09:19:03;;;;;;;2.92;0.50;;;;;;;7.79;100.00;101073.94;5096066;28;20111;-72
2022/11/25 09:21:29;;;;;;;2.92;0.60;;;;;;;7.91;100.00;101082.59;5092316;28;20067;-72
2022/11/25 09:23:54;;;;;;;1.38;0.50;;;;;;;8.04;100.00;101083.34;5093504;28;20040;-72
2022/11/25 09:26:21;;;;;;;1.10;0.35;;;;;;;8.14;99.73;101084.31;5095772;28;20043;-72
2022/11/25 09:28:46;;;;;;;1.45;0.40;;;;;;;8.17;99.99;101086.69;5091604;28;20036;-71
2022/11/25 09:31:12;;;;;;;1.48;0.57;;;;;;;8.17;99.38;101084.09;5092212;28;20097;-71
2022/11/25 09:33:37;;;;;;;2.80;0.50;;;;;;;8.20;99.75;101086.47;5091062;28;20028;-71
2022/11/25 09:36:05;;;;;;;2.85;0.40;;;;;;;8.26;99.78;101082.56;5091838;28;20433;-71
2022/11/25 09:38:30;;;;;;;2.33;0.30;;;;;;;8.31;100.00;101077.88;5087866;28;20061;-70
2022/11/25 09:41:09;;;;;;;2.53;0.50;;;;;;;8.34;99.69;101079.44;5092373;28;20039;-70
2022/11/25 09:46:44;;;;;;;3.60;0.30;;;;;;;8.92;96.74;101071.47;5087351;28;20043;-72
2022/11/25 09:49:31;;;;;;;2.28;0.63;;;;;;;9.14;94.89;101067.16;5093073;28;20040;-71
2022/11/25 09:51:59;;;;;;;3.70;0.50;;;;;;;9.21;94.84;101063.97;5090025;28;20486;-71
2022/11/25 09:54:41;;;;;;;1.45;0.43;;;;;;;9.21;93.40;101066.56;5091396;28;20047;-68
2022/11/25 09:57:38;;;;;;;1.48;0.40;;;;;;;9.25;92.46;101073.19;5092346;28;20066;-71
2022/11/25 10:00:12;;;;;;;1.73;0.55;;;;;;;9.26;93.84;101071.41;5090779;28;20039;-72
2022/11/25 10:02:43;;;;;;;6.10;0.40;;;;;;;9.41;94.03;101072.81;5093109;28;20028;-73
2022/11/25 10:05:24;;;;;;;2.55;0.50;;;;;;;9.42;95.32;101065.81;5092191;28;20039;-72
2022/11/25 10:07:53;;;;;;;2.75;0.40;;;;;;;9.46;95.45;101069.81;5092098;28;20060;-72
2022/11/25 10:10:29;;;;;;;2.65;0.63;;;;;;;9.48;93.59;101067.91;5090071;28;20454;-73
2022/11/25 10:12:57;;;;;;;1.00;0.40;;;;;;;9.57;94.54;101064.56;5091637;28;20028;-72
2022/11/25 10:15:26;;;;;;;1.35;0.40;;;;;;;9.67;93.34;101057.69;5088870;28;20424;-73
2022/11/25 10:17:56;;;;;;;3.28;0.65;;;;;;;9.75;92.22;101052.69;5090474;28;20457;-73
2022/11/25 10:20:35;;;;;;;1.33;0.50;;;;;;;9.82;92.25;101061.66;5089804;28;20084;-73
2022/11/25 10:23:03;;;;;;;3.22;0.80;;;;;;;9.87;93.69;101063.88;5090076;28;20811;-72
2022/11/25 10:25:37;;;;;;;3.38;0.68;;;;;;;9.79;91.73;101056.69;5091565;28;20041;-73
2022/11/25 10:28:11;;;;;;;5.38;0.75;;;;;;;9.82;91.41;101055.63;5091650;28;20036;-73
2022/11/25 10:30:49;;;;;;;3.75;0.52;;;;;;;9.80;90.57;101057.53;5090707;28;20024;-73
2022/11/25 10:33:34;;;;;;;1.17;0.50;;;;;;;9.78;91.56;101059.41;5088807;28;20043;-72
2022/11/25 10:36:13;;;;;;;1.10;0.50;;;;;;;9.85;91.90;101057.97;5092402;28;20024;-73
2022/11/25 10:38:42;;;;;;;2.10;0.32;;;;;;;9.84;91.22;101062.34;5082830;28;20099;-73
2022/11/25 10:41:14;;;;;;;2.35;0.30;;;;;;;9.82;91.52;101056.44;5091397;28;20060;-72
2022/11/25 10:43:41;;;;;;;1.92;0.40;;;;;;;9.79;92.04;101059.28;5090708;28;20212;-73
2022/11/25 10:46:24;;;;;;;2.97;0.47;;;;;;;9.77;91.76;101057.75;5092122;28;20032;-73
2022/11/25 10:49:04;;;;;;;1.15;0.50;;;;;;;9.80;92.37;101052.31;5091272;28;20024;-73
2022/11/25 10:51:47;;;;;;;4.43;0.40;;;;;;;9.78;90.41;101049.00;5090397;28;20038;-73
2022/11/25 10:54:19;;;;;;;2.10;0.43;;;;;;;9.83;91.44;101052.06;5089843;28;20036;-73
2022/11/25 10:56:55;;;;;;;1.27;0.40;;;;;;;9.86;91.67;101049.22;5092135;28;20506;-73
2022/11/25 10:59:24;;;;;;;;;;;;;;;9.90;89.71;101048.84;5089751;28;20036;-73
2022/11/25 11:02:04;;;;;;;2.13;0.60;;;;;;;9.89;92.19;101047.19;5089692;28;19916;-73
2022/11/25 11:04:31;;;;;;;2.13;0.40;;;;;;;9.95;93.25;101038.84;5089667;28;20430;-73
2022/11/25 11:07:07;;;;;;;1.30;0.30;;;;;;;9.92;93.57;101043.50;5091507;28;20102;-73
2022/11/25 11:09:42;;;;;;;1.55;0.28;;;;;;;9.96;92.82;101037.06;5087594;28;20020;-73
2022/11/25 11:12:21;;;;;;;2.45;0.40;;;;;;;10.08;90.31;101036.06;5089842;28;20024;-73
2022/11/25 11:14:47;;;;;;;5.80;0.30;;;;;;;10.11;91.89;101038.41;5087661;28;21279;-73
2022/11/25 11:17:34;;;;;;;2.75;0.50;;;;;;;10.12;91.58;101037.47;5084588;28;20031;-73
2022/11/25 11:20:05;;;;;;;1.13;0.40;;;;;;;10.13;92.33;101039.09;5088603;28;20020;-73
2022/11/25 11:22:33;;;;;;;5.20;0.50;;;;;;;10.20;92.41;101029.03;5083122;28;20521;-73
2022/11/25 11:25:24;;;;;;;2.00;0.40;;;;;;;10.18;90.20;101026.53;5085612;28;20134;-73
2022/11/25 11:27:50;;;;;;;4.07;0.40;;;;;;;10.27;92.82;101027.56;5084238;28;20430;-73
2022/11/25 11:30:19;;;;;;;1.98;0.45;;;;;;;10.31;91.31;101031.56;5092506;28;20072;-72
2022/11/25 11:32:56;;;;;;;4.40;0.50;;;;;;;10.27;91.40;101025.81;5089202;28;20815;-73
2022/11/25 11:35:45;;;;;;;3.97;0.40;;;;;;;10.28;89.74;101019.63;5084736;28;20119;-73
2022/11/25 11:38:31;;;;;;;1.67;0.30;;;;;;;10.35;89.76;101021.72;5089154;28;20071;-73
2022/11/25 11:41:09;;;;;;;6.87;0.30;;;;;;;10.41;90.61;101021.19;5090639;28;20363;-72